Detroit, MI (48201)

7:01 AM EST on December 08, 2016 (GMT -0500)
Lafayette Park | | Change Station

Elev 0 ft 42.34 °N, 83.04 °W | Updated 3 minutes ago

Overcast
Overcast
29.7 °F
Feels Like 30 °F
N
0.6
Wind Variable Wind from NW
Gusts 3.1 mph

Today
High -- | Low -- °F
--% Chance of Precip.
Yesterday
High -- | Low -- °F
Precip. -- in
Pressure 30.04 in
Visibility 10.0 miles
Clouds Overcast 2900 ft
Windchill 30 °F
Dew Point 29 °F
Humidity 98%
Rainfall 0.00 in
Snow Depth Not available.
7:49 AM 4:59 PM
Waxing Gibbous, 62% visible
METAR KDET 081153Z 28014KT 10SM OVC029 M02/M07 A3001 RMK AO2 SNB01E10 SLP171 P0000 60000 T10221072 11006 21022 53005
Pressure 30.04 in
Visibility 10.0 miles
Clouds Overcast 2900 ft
Windchill 30 °F
Dew Point 29 °F
Humidity 98%
Rainfall 0.00 in
Snow Depth Not available.
7:49 AM 4:59 PM
Waxing Gibbous, 62% visible
METAR KDET 081153Z 28014KT 10SM OVC029 M02/M07 A3001 RMK AO2 SNB01E10 SLP171 P0000 60000 T10221072 11006 21022 53005

10-Day Weather Forecast

Almanac

Astronomy

Dec. 08, 2016 Rise Set
Actual Time
Civil Twilight
Nautical Twilight
Astronomical Twilight
Moon
Length of Visible Light
Length of Day
Tomorrow will be .
, % of the Moon is Illuminated

Today's Extremes

State Highs State Lows

Community

WunderPhotos

Upload Photos

1,956,267 photos uploaded!

WunderBlog® & News

Nearby

Air Quality

  Air Quality AQ Index Pollutant
Not available.

Snow Depth

Station Depth Elevation

Earthquake Activity

City Distance Mag. Time & Date
Minimum magnitude displayed is 2.5.

Coastal Water Temperatures

Place Temperature

Stations

Nearby Weather Stations

Station Location Temp. Windchill Dew Point Humidity Wind Precip. Elev Updated Type
                   

Watches & Warnings

There are currently no watches in effect.